Time;durP1;ratioP1;P1;durP2;ratioP2;P2;SDS_P1;SDS_P2;PMS_P1;PMS_P2;Temp;Humidity;BMP_temperature;BMP_pressure;BME280_temperature;BME280_humidity;BME280_pressure;Samples;Min_cycle;Max_cycle;Signal;HPM_P1;HPM_P2
2022/07/19 00:02:05;;;;;;;7.32;5.80;;;15.70;99.90;;;;;;5028275;28;20418;-82
2022/07/19 00:04:31;;;;;;;6.80;5.47;;;15.70;99.90;;;;;;5030864;28;20448;-82
2022/07/19 00:06:57;;;;;;;8.60;5.43;;;15.60;99.90;;;;;;5012466;28;20468;-82
2022/07/19 00:09:24;;;;;;;6.15;5.30;;;15.60;99.90;;;;;;5024887;28;20480;-80
2022/07/19 00:11:50;;;;;;;8.27;6.00;;;15.60;99.90;;;;;;5027022;28;20581;-83
2022/07/19 00:14:16;;;;;;;8.77;6.40;;;15.50;99.90;;;;;;5012081;28;20790;-84
2022/07/19 00:16:42;;;;;;;7.43;5.50;;;15.50;99.90;;;;;;5013576;28;20458;-81
2022/07/19 00:19:08;;;;;;;7.95;5.68;;;15.50;99.90;;;;;;5010317;28;20457;-81
2022/07/19 00:21:33;;;;;;;7.25;4.90;;;15.50;99.90;;;;;;5010412;28;20402;-83
2022/07/19 00:24:00;;;;;;;7.80;5.68;;;15.40;99.90;;;;;;4999235;28;20483;-83
2022/07/19 00:26:27;;;;;;;7.90;5.68;;;15.40;99.90;;;;;;4992429;28;20885;-82
2022/07/19 00:28:54;;;;;;;7.47;5.65;;;15.40;99.90;;;;;;5009837;28;20398;-81
2022/07/19 00:31:21;;;;;;;6.53;5.50;;;15.30;99.90;;;;;;5027317;28;20455;-81
2022/07/19 00:33:47;;;;;;;9.18;5.95;;;15.30;99.90;;;;;;5029932;28;20432;-81
2022/07/19 00:36:12;;;;;;;7.70;5.87;;;15.30;99.90;;;;;;5011548;28;20386;-81
2022/07/19 00:38:38;;;;;;;7.10;5.70;;;15.30;99.90;;;;;;5003863;28;20469;-83
2022/07/19 00:41:04;;;;;;;6.50;5.80;;;15.20;99.90;;;;;;5017640;28;20395;-83
2022/07/19 00:43:30;;;;;;;7.25;5.68;;;15.20;99.90;;;;;;5029346;28;20396;-83
2022/07/19 00:45:57;;;;;;;7.90;6.53;;;15.20;99.90;;;;;;5042190;28;20902;-82
2022/07/19 00:48:23;;;;;;;8.13;5.95;;;15.20;99.90;;;;;;5011745;28;20405;-83
2022/07/19 00:50:49;;;;;;;8.00;5.87;;;15.20;99.90;;;;;;5029530;28;20394;-83
2022/07/19 00:53:14;;;;;;;9.77;6.35;;;15.10;99.90;;;;;;5015209;28;20962;-82
2022/07/19 00:55:43;;;;;;;6.90;5.80;;;15.10;99.90;;;;;;5009102;28;20394;-83
2022/07/19 00:58:11;;;;;;;6.53;5.85;;;15.00;99.90;;;;;;4992140;28;20430;-83
2022/07/19 01:00:38;;;;;;;8.52;6.10;;;15.00;99.90;;;;;;4992747;28;20417;-83
2022/07/19 01:03:07;;;;;;;7.97;5.90;;;15.00;99.90;;;;;;4992110;28;20375;-83
2022/07/19 01:05:34;;;;;;;8.52;6.13;;;14.90;99.90;;;;;;4992950;28;20973;-83
2022/07/19 01:08:00;;;;;;;7.50;6.13;;;14.90;99.90;;;;;;5020662;28;20760;-82
2022/07/19 01:10:27;;;;;;;7.20;6.05;;;14.90;99.90;;;;;;5009877;28;20383;-82
2022/07/19 01:12:53;;;;;;;7.63;6.07;;;14.90;99.90;;;;;;4991944;28;20947;-83
2022/07/19 01:15:20;;;;;;;9.15;6.93;;;14.80;99.90;;;;;;5009913;28;20527;-82
2022/07/19 01:17:47;;;;;;;7.63;6.03;;;14.80;99.90;;;;;;5009602;28;20411;-83
2022/07/19 01:20:13;;;;;;;8.80;6.63;;;14.80;99.90;;;;;;4993351;28;20395;-83
2022/07/19 01:22:41;;;;;;;7.65;6.20;;;14.80;99.90;;;;;;4991663;28;20386;-82
2022/07/19 01:25:07;;;;;;;7.65;6.32;;;14.70;99.90;;;;;;5019950;28;20440;-83
2022/07/19 01:27:41;;;;;;;8.02;6.25;;;14.70;99.90;;;;;;5028883;28;20404;-82
2022/07/19 01:30:16;;;;;;;7.43;5.97;;;14.70;99.90;;;;;;5027197;28;20897;-82
2022/07/19 01:32:42;;;;;;;7.40;6.38;;;14.70;99.90;;;;;;5011539;28;20724;-83
2022/07/19 01:35:08;;;;;;;7.68;6.68;;;14.60;99.90;;;;;;5026258;28;20447;-83
2022/07/19 01:37:35;;;;;;;7.55;6.70;;;14.60;99.90;;;;;;5011029;28;20413;-82
2022/07/19 01:40:03;;;;;;;8.77;6.47;;;14.60;99.90;;;;;;5029291;28;20413;-83
2022/07/19 01:42:28;;;;;;;7.60;6.43;;;14.50;99.90;;;;;;5029057;28;20389;-82
2022/07/19 01:44:54;;;;;;;9.73;6.72;;;14.50;99.90;;;;;;5026873;28;20393;-82
2022/07/19 01:47:20;;;;;;;8.10;6.97;;;14.50;99.90;;;;;;5022950;28;20437;-83
2022/07/19 01:49:45;;;;;;;8.73;6.83;;;14.40;99.90;;;;;;5009207;28;20419;-82
2022/07/19 01:52:11;;;;;;;7.97;6.70;;;14.40;99.90;;;;;;5009215;28;20399;-83
2022/07/19 01:54:37;;;;;;;8.70;7.10;;;14.30;99.90;;;;;;4991338;28;20398;-83
2022/07/19 01:57:02;;;;;;;7.13;6.25;;;14.30;99.90;;;;;;5009357;28;20505;-83
2022/07/19 01:59:28;;;;;;;7.57;6.28;;;13.30;99.90;;;;;;5009366;28;20465;-82
2022/07/19 02:01:54;;;;;;;8.50;7.17;;;14.30;99.90;;;;;;4992749;28;20407;-82
2022/07/19 02:04:19;;;;;;;7.07;6.10;;;14.20;99.90;;;;;;5013330;28;20414;-81
2022/07/19 02:06:45;;;;;;;7.93;6.57;;;14.20;99.90;;;;;;5013822;28;20720;-82
2022/07/19 02:09:11;;;;;;;8.63;6.93;;;14.10;99.90;;;;;;5024777;28;20421;-82
2022/07/19 02:11:37;;;;;;;9.80;6.67;;;14.10;99.90;;;;;;5005048;28;20383;-83
2022/07/19 02:14:04;;;;;;;8.18;6.80;;;14.10;99.90;;;;;;5026534;28;20381;-82
2022/07/19 02:16:29;;;;;;;10.20;7.20;;;14.10;99.90;;;;;;5030284;28;20417;-82
2022/07/19 02:18:55;;;;;;;9.70;7.47;;;14.00;99.90;;;;;;5014095;28;20397;-82
2022/07/19 02:21:21;;;;;;;8.77;7.05;;;14.00;99.90;;;;;;5032160;28;20862;-83
2022/07/19 02:23:46;;;;;;;7.53;6.72;;;14.00;99.90;;;;;;5032163;28;20380;-82
2022/07/19 02:26:12;;;;;;;9.97;6.63;;;13.90;99.90;;;;;;5030725;28;20466;-83
2022/07/19 02:28:37;;;;;;;9.23;7.43;;;13.90;99.90;;;;;;5023552;28;20391;-82
2022/07/19 02:31:04;;;;;;;9.17;6.60;;;13.90;99.90;;;;;;5013525;28;20753;-82
2022/07/19 02:33:29;;;;;;;9.47;7.40;;;13.90;99.90;;;;;;5012807;28;20461;-83
2022/07/19 02:35:55;;;;;;;8.73;7.37;;;13.90;99.90;;;;;;5012500;28;20414;-82
2022/07/19 02:38:20;;;;;;;10.73;7.10;;;13.80;99.90;;;;;;5012129;28;20395;-83
2022/07/19 02:40:46;;;;;;;8.77;7.50;;;13.80;99.90;;;;;;5012184;28;20749;-83
2022/07/19 02:43:12;;;;;;;8.57;7.45;;;13.80;99.90;;;;;;5026334;28;20397;-82
2022/07/19 02:45:37;;;;;;;10.27;7.47;;;13.80;99.90;;;;;;5026479;28;20453;-82
2022/07/19 02:48:04;;;;;;;8.73;6.70;;;13.80;99.90;;;;;;5023392;28;20385;-83
2022/07/19 02:50:33;;;;;;;8.15;6.75;;;13.80;99.90;;;;;;4994377;28;20426;-82
2022/07/19 02:52:59;;;;;;;9.23;7.43;;;13.70;99.90;;;;;;5023283;28;20388;-82
2022/07/19 02:55:24;;;;;;;9.13;7.10;;;13.80;99.90;;;;;;5032063;28;20464;-82
2022/07/19 02:57:50;;;;;;;11.18;7.75;;;13.80;99.90;;;;;;5031613;28;20409;-82
2022/07/19 03:00:16;;;;;;;8.73;7.55;;;13.60;99.90;;;;;;5031444;28;20471;-82
2022/07/19 03:02:41;;;;;;;10.20;7.50;;;13.50;99.90;;;;;;5013805;28;20381;-82
2022/07/19 03:05:07;;;;;;;11.32;7.07;;;13.50;99.90;;;;;;5022241;28;20873;-83
2022/07/19 03:07:33;;;;;;;16.48;8.07;;;13.50;99.90;;;;;;5018953;28;20736;-83
2022/07/19 03:09:59;;;;;;;14.38;8.23;;;13.50;99.90;;;;;;4996700;28;20398;-82
2022/07/19 03:12:25;;;;;;;15.60;8.32;;;13.50;99.90;;;;;;5011412;28;20383;-82
2022/07/19 03:14:51;;;;;;;10.97;8.00;;;13.40;99.90;;;;;;5012199;28;20877;-82
2022/07/19 03:17:16;;;;;;;9.23;7.30;;;13.50;99.90;;;;;;5011207;28;20395;-82
2022/07/19 03:19:42;;;;;;;10.15;7.57;;;13.50;99.90;;;;;;5024306;28;20383;-82
2022/07/19 03:22:08;;;;;;;10.63;7.50;;;13.50;99.90;;;;;;5011316;28;20383;-82
2022/07/19 03:24:33;;;;;;;11.07;7.83;;;13.50;99.90;;;;;;4993622;28;20379;-82
2022/07/19 03:27:00;;;;;;;11.95;8.05;;;13.50;99.90;;;;;;5011293;28;20385;-82
2022/07/19 03:29:26;;;;;;;9.48;7.35;;;13.60;99.90;;;;;;5021141;28;20495;-83
2022/07/19 03:31:52;;;;;;;10.97;7.47;;;13.60;99.90;;;;;;5030947;28;20451;-82
2022/07/19 03:34:17;;;;;;;8.43;7.13;;;13.60;99.90;;;;;;5030809;28;20893;-82
2022/07/19 03:36:43;;;;;;;10.25;7.70;;;13.60;99.90;;;;;;5012935;28;20389;-83
2022/07/19 03:39:08;;;;;;;8.77;7.63;;;13.60;99.90;;;;;;5030728;28;20402;-82
2022/07/19 03:41:34;;;;;;;9.60;8.07;;;13.60;99.90;;;;;;5030751;28;20460;-82
2022/07/19 03:44:00;;;;;;;9.27;7.90;;;13.60;99.90;;;;;;5013110;28;20407;-82
2022/07/19 03:46:28;;;;;;;8.33;6.57;;;13.60;99.90;;;;;;5011010;28;20736;-82
2022/07/19 03:48:54;;;;;;;8.73;7.47;;;13.70;99.90;;;;;;4993661;28;20469;-83
2022/07/19 03:51:19;;;;;;;10.40;6.97;;;13.70;99.90;;;;;;4993145;28;20397;-82
2022/07/19 03:53:46;;;;;;;9.13;6.97;;;13.70;99.90;;;;;;5012052;28;20375;-83
2022/07/19 03:56:12;;;;;;;7.85;6.97;;;13.80;99.90;;;;;;5030395;28;20949;-83
2022/07/19 03:58:38;;;;;;;8.60;7.25;;;13.80;99.90;;;;;;5012200;28;20402;-83
2022/07/19 04:01:03;;;;;;;8.25;7.22;;;13.90;99.90;;;;;;5012119;28;20805;-81
2022/07/19 04:03:29;;;;;;;13.88;7.72;;;13.90;99.90;;;;;;5021662;28;20395;-83
2022/07/19 04:05:55;;;;;;;22.17;8.60;;;14.00;99.90;;;;;;4992995;28;20478;-80
2022/07/19 04:08:21;;;;;;;11.65;6.95;;;14.00;99.90;;;;;;5010214;28;20406;-83
2022/07/19 04:10:46;;;;;;;11.32;6.90;;;14.10;99.90;;;;;;4992104;28;20383;-83
2022/07/19 04:13:12;;;;;;;12.93;7.20;;;14.20;99.90;;;;;;5023919;28;20389;-83
2022/07/19 04:15:37;;;;;;;7.57;6.30;;;14.20;99.90;;;;;;5029598;28;20394;-83
2022/07/19 04:18:03;;;;;;;8.32;6.60;;;14.30;99.90;;;;;;5029890;28;20405;-83
2022/07/19 04:20:29;;;;;;;7.30;6.50;;;14.40;99.90;;;;;;5019040;28;20383;-83
2022/07/19 04:22:56;;;;;;;7.63;6.25;;;14.40;99.90;;;;;;5010353;28;20398;-83
2022/07/19 04:25:21;;;;;;;16.98;7.65;;;14.50;99.90;;;;;;4991812;28;20422;-82
2022/07/19 04:27:47;;;;;;;10.23;6.83;;;14.60;99.90;;;;;;4992398;28;20477;-83
2022/07/19 04:30:13;;;;;;;13.40;6.80;;;14.70;99.90;;;;;;5010142;28;20371;-83
2022/07/19 04:32:38;;;;;;;9.00;7.33;;;14.80;99.90;;;;;;4991852;28;20403;-83
2022/07/19 04:35:05;;;;;;;11.63;7.13;;;14.80;99.90;;;;;;5025062;28;20480;-83
2022/07/19 04:37:31;;;;;;;10.23;6.65;;;14.90;99.90;;;;;;5029490;28;20496;-82
2022/07/19 04:39:56;;;;;;;7.27;6.43;;;15.00;99.90;;;;;;5029481;28;20527;-83
2022/07/19 04:42:22;;;;;;;8.67;6.77;;;15.10;99.90;;;;;;5028606;28;20932;-83
2022/07/19 04:44:47;;;;;;;6.70;6.03;;;15.30;99.90;;;;;;5018096;28;20406;-83
2022/07/19 04:47:13;;;;;;;10.47;6.53;;;15.60;99.90;;;;;;5010784;28;20395;-84
2022/07/19 04:49:39;;;;;;;9.07;6.40;;;15.90;99.90;;;;;;5010406;28;20407;-83
2022/07/19 04:52:05;;;;;;;18.80;8.17;;;16.20;99.90;;;;;;5010188;28;21237;-83
2022/07/19 04:54:31;;;;;;;15.05;7.18;;;16.60;99.90;;;;;;4991796;28;20881;-83
2022/07/19 04:56:57;;;;;;;14.63;6.83;;;16.90;99.90;;;;;;4991801;28;20399;-84
2022/07/19 04:59:22;;;;;;;23.73;7.15;;;17.30;99.90;;;;;;5009291;28;20414;-83
2022/07/19 05:01:48;;;;;;;23.80;7.60;;;17.40;99.90;;;;;;5009498;28;20905;-84
2022/07/19 05:04:14;;;;;;;11.02;6.50;;;17.60;99.90;;;;;;5027586;28;20751;-84
2022/07/19 05:06:40;;;;;;;11.60;6.63;;;17.80;99.90;;;;;;5028990;28;20413;-83
2022/07/19 05:09:05;;;;;;;11.90;6.32;;;18.20;99.90;;;;;;5028258;28;20396;-83
2022/07/19 05:11:31;;;;;;;12.60;5.72;;;18.70;99.90;;;;;;5012304;28;20449;-83
2022/07/19 05:13:57;;;;;;;14.13;6.30;;;18.80;99.90;;;;;;4991388;28;20386;-83
2022/07/19 05:16:22;;;;;;;10.70;5.78;;;19.00;99.90;;;;;;5008795;28;20379;-83
2022/07/19 05:18:48;;;;;;;8.90;6.07;;;19.10;99.90;;;;;;5009019;28;20449;-84
2022/07/19 05:21:13;;;;;;;6.97;5.63;;;19.20;99.90;;;;;;4991432;28;20406;-83
2022/07/19 05:23:42;;;;;;;11.70;6.13;;;19.40;99.90;;;;;;5015504;28;20455;-83
2022/07/19 05:26:08;;;;;;;10.07;6.70;;;19.60;99.90;;;;;;5031454;28;20406;-82
2022/07/19 05:28:33;;;;;;;8.03;5.90;;;19.80;99.90;;;;;;5011377;28;20387;-82
2022/07/19 05:30:59;;;;;;;10.00;6.00;;;19.90;99.90;;;;;;5009957;28;20387;-82
2022/07/19 05:33:27;;;;;;;7.00;5.80;;;20.00;99.90;;;;;;5009096;28;20395;-83
2022/07/19 05:35:52;;;;;;;8.68;6.20;;;20.20;99.90;;;;;;5011415;28;20408;-83
2022/07/19 05:38:18;;;;;;;8.87;5.70;;;20.30;99.90;;;;;;5007703;28;20908;-82
2022/07/19 05:40:44;;;;;;;7.68;5.70;;;20.50;99.90;;;;;;5013880;28;20420;-83
2022/07/19 05:43:09;;;;;;;9.13;6.33;;;20.60;99.90;;;;;;5009394;28;20490;-82
2022/07/19 05:45:35;;;;;;;9.45;6.43;;;20.70;99.90;;;;;;4995485;28;20421;-84
2022/07/19 05:48:01;;;;;;;8.67;5.23;;;20.80;99.90;;;;;;5019469;28;20793;-84
2022/07/19 05:50:26;;;;;;;11.80;5.72;;;20.80;99.90;;;;;;5032890;28;20396;-84
2022/07/19 05:52:52;;;;;;;10.50;5.50;;;21.20;99.90;;;;;;5047799;28;20394;-83
2022/07/19 05:55:18;;;;;;;9.60;5.30;;;21.40;99.90;;;;;;5032864;28;20727;-83
2022/07/19 05:57:43;;;;;;;7.57;4.75;;;21.50;99.90;;;;;;5032759;28;20405;-84
2022/07/19 06:00:14;;;;;;;9.07;4.67;;;;;;;;;;5015195;28;20382;-84
2022/07/19 06:02:40;;;;;;;5.70;4.80;;;;;;;;;;5014966;28;20431;-84
2022/07/19 06:05:06;;;;;;;14.10;5.10;;;21.90;99.90;;;;;;5030508;28;20808;-84
2022/07/19 06:07:32;;;;;;;13.17;5.60;;;22.00;99.90;;;;;;5032048;28;20478;-84
2022/07/19 06:09:57;;;;;;;10.00;5.05;;;22.10;99.90;;;;;;5032526;28;20473;-84
2022/07/19 06:12:23;;;;;;;10.00;5.10;;;22.30;99.90;;;;;;5047575;28;20382;-83
2022/07/19 06:14:49;;;;;;;8.88;4.72;;;22.60;99.90;;;;;;5032794;28;20476;-84
2022/07/19 06:17:14;;;;;;;10.30;4.83;;;22.80;99.90;;;;;;5033063;28;20393;-84
2022/07/19 06:19:40;;;;;;;17.45;5.30;;;22.90;99.90;;;;;;5014548;28;20552;-84
2022/07/19 06:22:05;;;;;;;11.00;4.95;;;23.10;99.90;;;;;;5012517;28;20375;-84
2022/07/19 06:24:31;;;;;;;9.27;4.77;;;;;;;;;;4994382;28;20466;-84
2022/07/19 06:26:57;;;;;;;9.15;4.82;;;;;;;;;;5012020;28;20373;-84
2022/07/19 06:29:23;;;;;;;9.70;4.53;;;;;;;;;;5031900;28;21020;-85
2022/07/19 06:31:49;;;;;;;8.53;3.93;;;;;;;;;;5014471;28;20374;-84
2022/07/19 06:34:15;;;;;;;7.10;3.92;;;;;;;;;;5013961;28;20369;-84
2022/07/19 06:36:42;;;;;;;36.80;7.28;;;;;;;;;;5013457;28;21159;-84
2022/07/19 06:39:08;;;;;;;22.60;5.55;;;;;;;;;;5013564;28;20407;-84
2022/07/19 06:41:34;;;;;;;8.43;4.00;;;;;;;;;;5029729;28;20389;-84
2022/07/19 06:43:59;;;;;;;9.93;3.90;;;26.40;98.30;;;;;;5030266;28;20381;-84
2022/07/19 06:46:25;;;;;;;8.27;4.25;;;26.40;97.90;;;;;;5029706;28;20703;-83
2022/07/19 06:48:51;;;;;;;7.87;3.83;;;26.90;96.20;;;;;;5029797;28;20366;-84
2022/07/19 06:51:16;;;;;;;22.67;5.30;;;27.10;96.20;;;;;;5043460;28;20818;-85
2022/07/19 06:53:42;;;;;;;8.63;3.75;;;27.30;92.90;;;;;;5032291;28;20369;-84
2022/07/19 06:56:08;;;;;;;7.27;3.77;;;27.50;93.30;;;;;;5013880;28;20378;-84
2022/07/19 06:58:34;;;;;;;5.30;3.60;;;27.70;93.20;;;;;;5033215;28;20759;-85
2022/07/19 07:01:00;;;;;;;6.68;3.47;;;28.00;91.70;;;;;;5013708;28;20388;-84
2022/07/19 07:03:26;;;;;;;7.90;3.40;;;28.30;92.40;;;;;;5015155;28;20470;-85
2022/07/19 07:05:52;;;;;;;6.20;2.77;;;28.70;87.70;;;;;;5030531;28;20444;-84
2022/07/19 07:08:17;;;;;;;5.80;3.10;;;29.00;88.70;;;;;;5032147;28;20381;-85
2022/07/19 07:10:43;;;;;;;5.50;3.03;;;29.00;87.00;;;;;;5014167;28;20385;-84
2022/07/19 07:13:09;;;;;;;6.40;3.23;;;29.20;90.50;;;;;;5031107;28;20386;-84
2022/07/19 07:15:34;;;;;;;7.80;3.65;;;29.40;88.60;;;;;;5032626;28;20518;-84
2022/07/19 07:18:00;;;;;;;5.93;3.20;;;29.70;88.20;;;;;;5018510;28;20419;-84
2022/07/19 07:20:26;;;;;;;6.50;3.17;;;30.00;88.40;;;;;;5007719;28;20393;-84
2022/07/19 07:22:52;;;;;;;6.77;3.40;;;;;;;;;;5046991;28;20802;-85
2022/07/19 07:25:18;;;;;;;8.27;3.42;;;30.10;89.90;;;;;;5032590;28;20763;-84
2022/07/19 07:27:44;;;;;;;23.92;4.57;;;30.00;91.80;;;;;;5015600;28;20861;-84
2022/07/19 07:30:10;;;;;;;10.27;3.63;;;29.80;82.60;;;;;;5008467;28;20390;-85
2022/07/19 07:32:38;;;;;;;6.32;3.25;;;29.80;84.80;;;;;;4996286;28;20387;-85
2022/07/19 07:35:04;;;;;;;4.72;3.30;;;29.80;81.30;;;;;;5007893;28;20429;-86
2022/07/19 07:37:30;;;;;;;6.15;3.00;;;29.80;82.00;;;;;;5014384;28;20812;-84
2022/07/19 07:39:56;;;;;;;6.18;3.20;;;29.50;89.70;;;;;;5000167;28;20898;-84
2022/07/19 07:42:22;;;;;;;5.43;3.20;;;29.30;91.40;;;;;;5034981;28;20382;-84
2022/07/19 07:44:47;;;;;;;6.95;3.40;;;29.40;89.90;;;;;;5014875;28;20401;-84
2022/07/19 07:47:13;;;;;;;4.37;2.97;;;29.40;90.60;;;;;;5033754;28;20378;-83
2022/07/19 07:49:39;;;;;;;4.80;3.22;;;29.50;90.80;;;;;;5014754;28;20395;-86
2022/07/19 07:52:06;;;;;;;4.20;2.80;;;29.60;91.10;;;;;;4994452;28;20491;-84
2022/07/19 07:54:32;;;;;;;5.27;2.73;;;29.80;90.30;;;;;;5023035;28;20782;-86
2022/07/19 07:56:58;;;;;;;5.60;3.00;;;30.00;88.50;;;;;;5011638;28;20380;-85
2022/07/19 07:59:24;;;;;;;5.68;2.88;;;30.20;88.10;;;;;;4993105;28;20502;-84
2022/07/19 08:01:50;;;;;;;5.40;2.80;;;30.50;90.30;;;;;;5012100;28;20391;-84
2022/07/19 08:04:16;;;;;;;14.10;3.80;;;30.60;96.20;;;;;;4994461;28;20379;-84
2022/07/19 08:06:41;;;;;;;13.07;3.27;;;30.70;97.90;;;;;;4993078;28;20474;-85
2022/07/19 08:09:11;;;;;;;6.20;2.77;;;31.00;99.90;;;;;;4994299;28;20379;-85
2022/07/19 08:11:37;;;;;;;6.13;3.00;;;;;;;;;;4993250;28;20387;-84
2022/07/19 08:14:04;;;;;;;6.20;2.80;;;;;;;;;;4993339;28;20370;-84
2022/07/19 08:16:30;;;;;;;4.20;2.80;;;;;;;;;;4994329;28;20414;-85
2022/07/19 08:18:57;;;;;;;6.82;2.97;;;;;;;;;;5011532;28;20446;-84
2022/07/19 08:21:24;;;;;;;5.10;2.90;;;;;;;;;;4993702;28;20385;-84
2022/07/19 08:23:50;;;;;;;5.47;2.90;;;;;;;;;;5000939;28;20389;-86
2022/07/19 08:26:16;;;;;;;4.55;3.00;;;;;;;;;;5016956;28;20402;-84
2022/07/19 08:28:42;;;;;;;6.43;2.78;;;;;;;;;;5012048;28;20395;-85
2022/07/19 08:31:08;;;;;;;5.32;2.80;;;;;;;;;;4995118;28;20372;-83
2022/07/19 08:33:34;;;;;;;7.03;3.07;;;;;;;;;;5013070;28;21070;-84
2022/07/19 08:36:00;;;;;;;4.70;2.75;;;;;;;;;;4995282;28;20403;-84
2022/07/19 08:38:27;;;;;;;8.73;3.00;;;;;;;;;;5011436;28;20398;-84
2022/07/19 08:40:55;;;;;;;7.20;2.80;;;;;;;;;;4995642;28;20399;-85
2022/07/19 08:43:22;;;;;;;4.53;2.67;;;;;;;;;;4987984;28;20379;-83
2022/07/19 08:45:48;;;;;;;6.43;3.10;;;;;;;;;;5017544;28;20756;-85
2022/07/19 08:48:17;;;;;;;6.97;3.00;;;;;;;;;;5010327;28;21633;-84
2022/07/19 08:50:44;;;;;;;5.60;3.35;;;;;;;;;;4992410;28;20756;-84
2022/07/19 08:53:11;;;;;;;5.70;2.70;;;;;;;;;;5010557;28;20466;-83
2022/07/19 08:55:37;;;;;;;6.07;3.05;;;;;;;;;;5010387;28;20426;-86
2022/07/19 08:58:03;;;;;;;5.38;2.95;;;;;;;;;;4992350;28;20419;-85
2022/07/19 09:00:30;;;;;;;4.20;2.83;;;;;;;;;;4994603;28;20397;-85
2022/07/19 09:03:01;;;;;;;5.60;2.55;;;;;;;;;;5010888;28;20469;-84
2022/07/19 09:05:27;;;;;;;6.63;2.90;;;;;;;;;;5019978;28;20451;-83
2022/07/19 09:08:08;;;;;;;10.70;3.28;;;;;;;;;;5013019;28;20425;-85
2022/07/19 09:10:37;;;;;;;7.07;3.30;;;;;;;;;;5002092;28;20791;-85
2022/07/19 09:13:14;;;;;;;4.38;2.70;;;;;;;;;;4998525;28;21007;-85
2022/07/19 09:15:42;;;;;;;5.40;2.90;;;;;;;;;;5029692;28;20389;-85
2022/07/19 09:18:20;;;;;;;5.13;2.80;;;;;;;;;;4999582;28;20978;-87
2022/07/19 09:20:47;;;;;;;4.53;2.83;;;;;;;;;;4992461;28;20738;-84
2022/07/19 09:23:15;;;;;;;5.60;2.65;;;;;;;;;;5011923;28;20470;-84
2022/07/19 09:25:43;;;;;;;6.22;2.53;;;;;;;;;;5010109;28;20379;-85
2022/07/19 09:28:09;;;;;;;49.38;6.90;;;;;;;;;;4993166;28;20383;-83
2022/07/19 09:30:39;;;;;;;12.75;3.20;;;;;;;;;;5025723;28;20365;-83
2022/07/19 09:33:10;;;;;;;6.90;3.00;;;;;;;;;;5030099;28;20397;-84
2022/07/19 09:35:41;;;;;;;3.92;2.80;;;;;;;;;;5029527;28;20382;-84
2022/07/19 09:38:26;;;;;;;3.97;2.63;;;;;;;;;;5010834;28;20409;-84
2022/07/19 09:40:54;;;;;;;10.45;4.20;;;;;;;;;;5002441;28;20428;-84
2022/07/19 09:43:22;;;;;;;4.35;2.70;;;;;;;;;;5012940;28;20384;-83
2022/07/19 09:45:48;;;;;;;32.50;5.25;;;;;;;;;;4992221;28;20400;-84
2022/07/19 09:48:16;;;;;;;4.10;3.10;;;;;;;;;;4991678;28;20376;-84
2022/07/19 09:50:43;;;;;;;6.47;3.20;;;;;;;;;;4991918;28;20379;-85
2022/07/19 09:53:09;;;;;;;4.72;2.40;;;;;;;;;;4995406;28;20927;-86
2022/07/19 09:55:35;;;;;;;6.55;3.17;;;;;;;;;;5022900;28;20377;-84
2022/07/19 09:58:02;;;;;;;4.22;2.88;;;;;;;;;;5011752;28;20412;-83
2022/07/19 10:00:29;;;;;;;5.55;3.00;;;;;;;;;;4993435;28;20383;-83
2022/07/19 10:02:59;;;;;;;6.45;2.70;;;;;;;;;;4992713;28;20877;-85
2022/07/19 10:05:26;;;;;;;4.57;2.65;;;;;;;;;;4992422;28;20427;-83
2022/07/19 10:07:53;;;;;;;5.32;2.58;;;;;;;;;;5030698;28;20385;-82
2022/07/19 10:10:20;;;;;;;5.03;2.55;;;;;;;;;;5010413;28;20906;-83
2022/07/19 10:12:47;;;;;;;6.57;2.75;;;;;;;;;;4990812;28;20383;-83
2022/07/19 10:15:15;;;;;;;4.43;2.67;;;;;;;;;;4991950;28;20387;-84
2022/07/19 10:17:50;;;;;;;5.30;2.78;;;;;;;;;;4999855;28;20484;-84
2022/07/19 10:20:16;;;;;;;4.25;2.83;;;;;;;;;;4995602;28;20407;-83
2022/07/19 10:22:42;;;;;;;3.95;2.40;;;;;;;;;;5015753;28;20393;-84
2022/07/19 10:25:13;;;;;;;19.45;3.50;;;;;;;;;;5014724;28;20384;-82
2022/07/19 10:27:47;;;;;;;20.55;3.80;;;;;;;;;;5015614;28;20381;-85
2022/07/19 10:30:13;;;;;;;5.13;2.30;;;;;;;;;;5034135;28;20467;-84
2022/07/19 10:32:43;;;;;;;5.77;2.47;;;;;;;;;;5015497;28;20444;-82
2022/07/19 10:35:25;;;;;;;4.88;2.60;;;;;;;;;;5025875;28;20387;-86
2022/07/19 10:37:55;;;;;;;5.72;2.70;;;;;;;;;;4996109;28;20418;-83
2022/07/19 10:40:36;;;;;;;4.80;2.80;;;;;;;;;;5013402;28;20385;-84
2022/07/19 10:43:09;;;;;;;3.25;2.40;;;;;;;;;;5026287;28;20458;-85
2022/07/19 10:45:36;;;;;;;5.00;2.67;;;;;;;;;;5026963;28;20382;-86
2022/07/19 10:48:05;;;;;;;4.90;2.38;;;;;;;;;;5013297;28;20699;-83
2022/07/19 10:50:43;;;;;;;4.28;2.53;;;;;;;;;;5006991;28;20854;-83
2022/07/19 10:53:09;;;;;;;4.22;2.30;;;;;;;;;;5035122;28;20447;-83
2022/07/19 10:55:36;;;;;;;3.95;2.50;;;;;;;;;;5017359;28;20382;-84
2022/07/19 10:58:05;;;;;;;5.30;2.90;;;;;;;;;;5016004;28;20405;-85
2022/07/19 11:00:32;;;;;;;5.28;2.50;;;;;;;;;;5033336;28;20369;-86
2022/07/19 11:03:17;;;;;;;5.18;2.42;;;;;;;;;;5011246;28;20883;-84
2022/07/19 11:05:48;;;;;;;5.65;2.22;;;;;;;;;;5005458;28;20403;-83
2022/07/19 11:08:14;;;;;;;5.32;2.53;;;;;;;;;;5020299;28;20379;-84
2022/07/19 11:10:40;;;;;;;3.90;2.35;;;;;;;;;;5004365;28;20431;-84
2022/07/19 11:13:06;;;;;;;6.47;2.55;;;;;;;;;;5008433;28;20387;-82
2022/07/19 11:15:32;;;;;;;4.20;2.63;;;;;;;;;;5007468;28;20387;-85
2022/07/19 11:17:58;;;;;;;4.90;2.60;;;;;;;;;;5005711;28;20921;-84
2022/07/19 11:20:26;;;;;;;4.80;2.30;;;;;;;;;;5025848;28;20394;-85
2022/07/19 11:22:52;;;;;;;3.70;1.88;;;;;;;;;;5007137;28;20460;-87
2022/07/19 11:25:24;;;;;;;3.17;2.15;;;;;;;;;;5007231;28;20362;-86
2022/07/19 11:27:50;;;;;;;3.13;2.53;;;;;;;;;;5005050;28;20423;-85
2022/07/19 11:30:21;;;;;;;4.03;2.20;;;;;;;;;;5021732;28;20374;-84
2022/07/19 11:32:52;;;;;;;4.47;2.40;;;;;;;;;;5005722;28;20462;-87
2022/07/19 11:35:18;;;;;;;4.20;2.08;;;;;;;;;;5020542;28;20474;-84
2022/07/19 11:37:44;;;;;;;7.50;2.45;;;;;;;;;;5003596;28;21363;-85
2022/07/19 11:40:11;;;;;;;4.10;1.98;;;;;;;;;;5003797;28;20376;-85
2022/07/19 11:42:38;;;;;;;4.65;2.20;;;;;;;;;;5004345;28;20437;-84
2022/07/19 11:45:23;;;;;;;3.38;1.90;;;;;;;;;;5003040;28;20408;-84
2022/07/19 11:47:52;;;;;;;3.65;1.80;;;;;;;;;;5004508;28;20409;-86
2022/07/19 11:50:19;;;;;;;2.30;2.10;;;;;;;;;;5002315;28;20370;-86
2022/07/19 11:52:52;;;;;;;3.85;2.30;;;;;;;;;;5021544;28;20395;-87
2022/07/19 11:55:20;;;;;;;3.20;2.33;;;;;;;;;;5016851;28;20471;-86
2022/07/19 11:57:46;;;;;;;2.53;2.22;;;;;;;;;;5027698;28;20416;-86
2022/07/19 12:00:13;;;;;;;6.10;2.63;;;;;;;;;;5006209;28;20393;-87
2022/07/19 12:03:00;;;;;;;5.05;2.40;;;;;;;;;;5000555;28;20373;-89
2022/07/19 12:05:27;;;;;;;25.65;3.80;;;;;;;;;;5004400;28;20391;-86
2022/07/19 12:07:54;;;;;;;3.00;2.47;;;;;;;;;;5012083;28;20461;-85
2022/07/19 12:10:36;;;;;;;5.07;2.35;;;;;;;;;;5019174;28;20372;-87
2022/07/19 12:13:03;;;;;;;4.60;2.37;;;;;;;;;;5003397;28;20385;-85
2022/07/19 12:15:49;;;;;;;9.67;3.23;;;;;;;;;;5006406;28;20404;-88
2022/07/19 12:18:17;;;;;;;4.60;2.60;;;;;;;;;;5021879;28;20497;-87
2022/07/19 12:20:44;;;;;;;4.65;2.90;;;;;;;;;;5019555;28;20387;-87
2022/07/19 12:23:23;;;;;;;4.57;2.50;;;;;;;;;;5002140;28;20381;-86
2022/07/19 12:25:50;;;;;;;24.30;4.78;;;;;;;;;;5003517;28;20417;-86
2022/07/19 12:28:16;;;;;;;5.32;2.90;;;;;;;;;;4993118;28;20457;-86
2022/07/19 12:30:41;;;;;;;4.10;2.55;;;33.70;52.30;;;;;;5013003;28;20375;-85
2022/07/19 12:33:12;;;;;;;7.03;2.97;;;33.90;53.60;;;;;;4994513;28;21023;-88
2022/07/19 12:35:45;;;;;;;7.00;3.00;;;33.60;53.10;;;;;;5009889;28;20413;-84
2022/07/19 12:38:12;;;;;;;4.10;2.75;;;33.70;52.20;;;;;;5002512;28;20406;-84
2022/07/19 12:40:40;;;;;;;5.97;2.80;;;33.60;51.50;;;;;;4998301;28;20400;-86
2022/07/19 12:43:06;;;;;;;3.47;2.73;;;33.50;53.40;;;;;;5008366;28;20926;-84
2022/07/19 12:45:43;;;;;;;4.32;2.40;;;33.50;55.80;;;;;;5002743;28;20387;-85
2022/07/19 12:48:18;;;;;;;4.50;2.40;;;33.50;54.00;;;;;;4999774;28;20881;-86
2022/07/19 12:50:48;;;;;;;4.47;2.40;;;33.70;53.20;;;;;;5004328;28;20453;-84
2022/07/19 12:53:17;;;;;;;6.10;2.80;;;33.60;54.10;;;;;;5001830;28;20418;-86
2022/07/19 12:55:44;;;;;;;5.38;2.92;;;33.50;53.40;;;;;;5001046;28;20932;-86
2022/07/19 12:58:12;;;;;;;8.02;2.90;;;33.40;54.00;;;;;;5022196;28;20411;-87
2022/07/19 13:00:39;;;;;;;5.25;2.75;;;33.50;56.30;;;;;;5018952;28;20385;-87
2022/07/19 13:03:05;;;;;;;8.45;3.25;;;33.70;53.70;;;;;;5000968;28;20387;-85
2022/07/19 13:05:32;;;;;;;6.82;3.00;;;33.60;53.00;;;;;;5019031;28;20382;-85
2022/07/19 13:07:58;;;;;;;50.08;7.35;;;33.50;52.90;;;;;;5018416;28;20461;-88
2022/07/19 13:10:26;;;;;;;5.57;2.80;;;33.50;53.40;;;;;;5000429;28;20394;-84
2022/07/19 13:12:52;;;;;;;5.35;2.88;;;33.50;54.80;;;;;;5017620;28;20387;-86
2022/07/19 13:15:18;;;;;;;4.73;2.30;;;33.70;54.00;;;;;;5000482;28;20405;-88
2022/07/19 13:17:43;;;;;;;4.45;2.67;;;33.70;55.60;;;;;;5019680;28;20422;-88
2022/07/19 13:20:10;;;;;;;5.97;2.90;;;33.60;54.80;;;;;;5017563;28;20446;-86
2022/07/19 13:22:37;;;;;;;8.20;2.83;;;33.60;55.40;;;;;;5019960;28;20392;-87